sensor_id;sensor_type;location;lat;lon;timestamp;P1;durP1;ratioP1;P2;durP2;ratioP2
53931;SDS011;39844;52.496;13.482;2023-04-22T00:01:34;4.40;;;3.70;;
53931;SDS011;39844;52.496;13.482;2023-04-22T00:04:00;4.40;;;3.70;;
53931;SDS011;39844;52.496;13.482;2023-04-22T00:06:25;5.67;;;3.00;;
53931;SDS011;39844;52.496;13.482;2023-04-22T00:08:50;9.43;;;3.53;;
53931;SDS011;39844;52.496;13.482;2023-04-22T00:11:18;5.47;;;3.80;;
53931;SDS011;39844;52.496;13.482;2023-04-22T00:13:43;5.60;;;3.50;;
53931;SDS011;39844;52.496;13.482;2023-04-22T00:16:08;4.27;;;3.30;;
53931;SDS011;39844;52.496;13.482;2023-04-22T00:18:34;4.47;;;3.33;;
53931;SDS011;39844;52.496;13.482;2023-04-22T00:21:00;7.73;;;3.40;;
53931;SDS011;39844;52.496;13.482;2023-04-22T00:23:25;5.03;;;3.57;;
53931;SDS011;39844;52.496;13.482;2023-04-22T00:25:50;3.40;;;3.13;;
53931;SDS011;39844;52.496;13.482;2023-04-22T00:28:15;4.33;;;3.43;;
53931;SDS011;39844;52.496;13.482;2023-04-22T00:30:41;3.87;;;3.27;;
53931;SDS011;39844;52.496;13.482;2023-04-22T00:33:06;4.53;;;3.70;;
53931;SDS011;39844;52.496;13.482;2023-04-22T00:35:31;4.50;;;3.37;;
53931;SDS011;39844;52.496;13.482;2023-04-22T00:37:57;6.93;;;3.77;;
53931;SDS011;39844;52.496;13.482;2023-04-22T00:40:23;3.23;;;2.77;;
53931;SDS011;39844;52.496;13.482;2023-04-22T00:42:49;4.73;;;3.67;;
53931;SDS011;39844;52.496;13.482;2023-04-22T00:45:15;5.20;;;3.27;;
53931;SDS011;39844;52.496;13.482;2023-04-22T00:47:40;6.23;;;3.43;;
53931;SDS011;39844;52.496;13.482;2023-04-22T00:50:06;4.53;;;3.77;;
53931;SDS011;39844;52.496;13.482;2023-04-22T00:52:32;5.07;;;3.60;;
53931;SDS011;39844;52.496;13.482;2023-04-22T00:54:57;3.93;;;2.93;;
53931;SDS011;39844;52.496;13.482;2023-04-22T00:57:22;4.33;;;3.40;;
53931;SDS011;39844;52.496;13.482;2023-04-22T00:59:48;4.83;;;3.30;;
53931;SDS011;39844;52.496;13.482;2023-04-22T01:02:14;5.47;;;3.67;;
53931;SDS011;39844;52.496;13.482;2023-04-22T01:04:39;5.37;;;3.43;;
53931;SDS011;39844;52.496;13.482;2023-04-22T01:07:05;4.57;;;3.90;;
53931;SDS011;39844;52.496;13.482;2023-04-22T01:09:30;3.97;;;3.57;;
53931;SDS011;39844;52.496;13.482;2023-04-22T01:11:56;7.70;;;3.23;;
53931;SDS011;39844;52.496;13.482;2023-04-22T01:14:22;6.23;;;3.67;;
53931;SDS011;39844;52.496;13.482;2023-04-22T01:16:47;4.73;;;3.80;;
53931;SDS011;39844;52.496;13.482;2023-04-22T01:19:13;4.73;;;4.03;;
53931;SDS011;39844;52.496;13.482;2023-04-22T01:21:39;5.03;;;3.90;;
53931;SDS011;39844;52.496;13.482;2023-04-22T01:24:06;5.10;;;3.83;;
53931;SDS011;39844;52.496;13.482;2023-04-22T01:26:32;4.43;;;3.50;;
53931;SDS011;39844;52.496;13.482;2023-04-22T01:28:57;5.33;;;3.70;;
53931;SDS011;39844;52.496;13.482;2023-04-22T01:31:25;5.70;;;3.57;;
53931;SDS011;39844;52.496;13.482;2023-04-22T01:33:50;4.30;;;3.87;;
53931;SDS011;39844;52.496;13.482;2023-04-22T01:36:16;4.77;;;3.60;;
53931;SDS011;39844;52.496;13.482;2023-04-22T01:38:41;3.50;;;3.20;;
53931;SDS011;39844;52.496;13.482;2023-04-22T01:41:06;5.93;;;3.80;;
53931;SDS011;39844;52.496;13.482;2023-04-22T01:43:32;4.30;;;3.67;;
53931;SDS011;39844;52.496;13.482;2023-04-22T01:45:59;6.43;;;4.30;;
53931;SDS011;39844;52.496;13.482;2023-04-22T01:48:25;6.90;;;3.60;;
53931;SDS011;39844;52.496;13.482;2023-04-22T01:50:51;7.53;;;4.00;;
53931;SDS011;39844;52.496;13.482;2023-04-22T01:53:16;6.80;;;3.70;;
53931;SDS011;39844;52.496;13.482;2023-04-22T01:55:41;4.87;;;3.57;;
53931;SDS011;39844;52.496;13.482;2023-04-22T01:58:07;4.60;;;3.87;;
53931;SDS011;39844;52.496;13.482;2023-04-22T02:00:32;5.93;;;4.10;;
53931;SDS011;39844;52.496;13.482;2023-04-22T02:02:58;6.87;;;4.13;;
53931;SDS011;39844;52.496;13.482;2023-04-22T02:05:23;4.53;;;3.50;;
53931;SDS011;39844;52.496;13.482;2023-04-22T02:07:52;5.43;;;3.87;;
53931;SDS011;39844;52.496;13.482;2023-04-22T02:10:18;4.70;;;3.60;;
53931;SDS011;39844;52.496;13.482;2023-04-22T02:12:43;6.13;;;4.23;;
53931;SDS011;39844;52.496;13.482;2023-04-22T02:15:09;5.47;;;3.77;;
53931;SDS011;39844;52.496;13.482;2023-04-22T02:17:35;5.07;;;3.50;;
53931;SDS011;39844;52.496;13.482;2023-04-22T02:20:03;9.17;;;4.43;;
53931;SDS011;39844;52.496;13.482;2023-04-22T02:22:30;9.80;;;4.30;;
53931;SDS011;39844;52.496;13.482;2023-04-22T02:24:56;12.63;;;4.90;;
53931;SDS011;39844;52.496;13.482;2023-04-22T02:27:21;4.77;;;3.93;;
53931;SDS011;39844;52.496;13.482;2023-04-22T02:29:46;4.30;;;3.50;;
53931;SDS011;39844;52.496;13.482;2023-04-22T02:32:12;5.50;;;3.80;;
53931;SDS011;39844;52.496;13.482;2023-04-22T02:34:37;6.33;;;4.00;;
53931;SDS011;39844;52.496;13.482;2023-04-22T02:37:02;5.30;;;4.33;;
53931;SDS011;39844;52.496;13.482;2023-04-22T02:39:28;4.53;;;3.80;;
53931;SDS011;39844;52.496;13.482;2023-04-22T02:41:53;4.00;;;3.70;;
53931;SDS011;39844;52.496;13.482;2023-04-22T02:44:18;4.30;;;3.77;;
53931;SDS011;39844;52.496;13.482;2023-04-22T02:46:44;7.63;;;3.60;;
53931;SDS011;39844;52.496;13.482;2023-04-22T02:49:09;5.10;;;3.50;;
53931;SDS011;39844;52.496;13.482;2023-04-22T02:51:36;9.63;;;3.77;;
53931;SDS011;39844;52.496;13.482;2023-04-22T02:54:02;6.37;;;4.40;;
53931;SDS011;39844;52.496;13.482;2023-04-22T02:56:27;9.27;;;4.50;;
53931;SDS011;39844;52.496;13.482;2023-04-22T02:58:52;6.20;;;4.13;;
53931;SDS011;39844;52.496;13.482;2023-04-22T03:01:20;6.33;;;4.10;;
53931;SDS011;39844;52.496;13.482;2023-04-22T03:03:45;3.87;;;3.03;;
53931;SDS011;39844;52.496;13.482;2023-04-22T03:06:11;5.77;;;3.83;;
53931;SDS011;39844;52.496;13.482;2023-04-22T03:08:36;6.57;;;4.10;;
53931;SDS011;39844;52.496;13.482;2023-04-22T03:11:01;5.00;;;3.60;;
53931;SDS011;39844;52.496;13.482;2023-04-22T03:13:27;7.10;;;3.83;;
53931;SDS011;39844;52.496;13.482;2023-04-22T03:15:52;9.40;;;4.30;;
53931;SDS011;39844;52.496;13.482;2023-04-22T03:18:17;8.33;;;4.03;;
53931;SDS011;39844;52.496;13.482;2023-04-22T03:20:42;4.80;;;3.93;;
53931;SDS011;39844;52.496;13.482;2023-04-22T03:23:08;9.10;;;4.07;;
53931;SDS011;39844;52.496;13.482;2023-04-22T03:25:34;5.33;;;4.20;;
53931;SDS011;39844;52.496;13.482;2023-04-22T03:28:00;7.33;;;4.20;;
53931;SDS011;39844;52.496;13.482;2023-04-22T03:30:25;5.60;;;4.00;;
53931;SDS011;39844;52.496;13.482;2023-04-22T03:32:50;15.13;;;4.23;;
53931;SDS011;39844;52.496;13.482;2023-04-22T03:35:16;5.50;;;3.90;;
53931;SDS011;39844;52.496;13.482;2023-04-22T03:37:41;5.13;;;3.83;;
53931;SDS011;39844;52.496;13.482;2023-04-22T03:40:06;5.23;;;4.53;;
53931;SDS011;39844;52.496;13.482;2023-04-22T03:42:32;8.03;;;3.90;;
53931;SDS011;39844;52.496;13.482;2023-04-22T03:44:58;5.30;;;4.37;;
53931;SDS011;39844;52.496;13.482;2023-04-22T03:47:23;5.20;;;3.30;;
53931;SDS011;39844;52.496;13.482;2023-04-22T03:49:48;6.43;;;4.13;;
53931;SDS011;39844;52.496;13.482;2023-04-22T03:52:13;4.60;;;4.03;;
53931;SDS011;39844;52.496;13.482;2023-04-22T03:54:39;5.10;;;3.97;;
53931;SDS011;39844;52.496;13.482;2023-04-22T03:57:04;6.10;;;4.40;;
53931;SDS011;39844;52.496;13.482;2023-04-22T03:59:29;5.50;;;4.10;;
53931;SDS011;39844;52.496;13.482;2023-04-22T04:01:55;5.70;;;4.10;;
53931;SDS011;39844;52.496;13.482;2023-04-22T04:04:20;5.90;;;3.83;;
53931;SDS011;39844;52.496;13.482;2023-04-22T04:06:45;4.10;;;3.63;;
53931;SDS011;39844;52.496;13.482;2023-04-22T04:09:10;7.90;;;4.17;;
53931;SDS011;39844;52.496;13.482;2023-04-22T04:11:36;7.63;;;3.60;;
53931;SDS011;39844;52.496;13.482;2023-04-22T04:14:01;5.10;;;4.20;;
53931;SDS011;39844;52.496;13.482;2023-04-22T04:16:26;6.50;;;4.20;;
53931;SDS011;39844;52.496;13.482;2023-04-22T04:18:52;7.27;;;4.57;;
53931;SDS011;39844;52.496;13.482;2023-04-22T04:21:17;4.27;;;3.37;;
53931;SDS011;39844;52.496;13.482;2023-04-22T04:23:42;4.43;;;3.80;;
53931;SDS011;39844;52.496;13.482;2023-04-22T04:26:08;5.23;;;3.70;;
53931;SDS011;39844;52.496;13.482;2023-04-22T04:28:33;4.73;;;3.90;;
53931;SDS011;39844;52.496;13.482;2023-04-22T04:30:59;4.40;;;3.87;;
53931;SDS011;39844;52.496;13.482;2023-04-22T04:33:26;9.83;;;4.77;;
53931;SDS011;39844;52.496;13.482;2023-04-22T04:35:51;4.77;;;3.97;;
53931;SDS011;39844;52.496;13.482;2023-04-22T04:38:17;5.90;;;3.90;;
53931;SDS011;39844;52.496;13.482;2023-04-22T04:40:42;5.83;;;4.27;;
53931;SDS011;39844;52.496;13.482;2023-04-22T04:43:07;6.53;;;3.87;;
53931;SDS011;39844;52.496;13.482;2023-04-22T04:45:33;10.23;;;4.43;;
53931;SDS011;39844;52.496;13.482;2023-04-22T04:47:59;7.67;;;4.37;;
53931;SDS011;39844;52.496;13.482;2023-04-22T04:50:24;5.57;;;4.07;;
53931;SDS011;39844;52.496;13.482;2023-04-22T04:52:49;6.13;;;4.00;;
53931;SDS011;39844;52.496;13.482;2023-04-22T04:55:15;5.93;;;3.97;;
53931;SDS011;39844;52.496;13.482;2023-04-22T04:57:42;5.47;;;4.00;;
53931;SDS011;39844;52.496;13.482;2023-04-22T05:00:08;6.27;;;4.30;;
53931;SDS011;39844;52.496;13.482;2023-04-22T05:02:34;6.53;;;4.13;;
53931;SDS011;39844;52.496;13.482;2023-04-22T05:04:59;5.30;;;4.17;;
53931;SDS011;39844;52.496;13.482;2023-04-22T05:07:25;5.77;;;4.10;;
53931;SDS011;39844;52.496;13.482;2023-04-22T05:09:50;8.27;;;4.57;;
53931;SDS011;39844;52.496;13.482;2023-04-22T05:12:15;7.10;;;4.40;;
53931;SDS011;39844;52.496;13.482;2023-04-22T05:14:41;5.07;;;3.97;;
53931;SDS011;39844;52.496;13.482;2023-04-22T05:17:06;4.73;;;4.27;;
53931;SDS011;39844;52.496;13.482;2023-04-22T05:19:31;7.57;;;4.03;;
53931;SDS011;39844;52.496;13.482;2023-04-22T05:21:57;4.53;;;3.87;;
53931;SDS011;39844;52.496;13.482;2023-04-22T05:24:22;5.83;;;4.17;;
53931;SDS011;39844;52.496;13.482;2023-04-22T05:26:47;5.00;;;4.07;;
53931;SDS011;39844;52.496;13.482;2023-04-22T05:29:13;5.17;;;4.67;;
53931;SDS011;39844;52.496;13.482;2023-04-22T05:31:38;6.97;;;4.07;;
53931;SDS011;39844;52.496;13.482;2023-04-22T05:34:03;5.93;;;4.43;;
53931;SDS011;39844;52.496;13.482;2023-04-22T05:36:29;5.93;;;4.23;;
53931;SDS011;39844;52.496;13.482;2023-04-22T05:38:54;5.13;;;4.40;;
53931;SDS011;39844;52.496;13.482;2023-04-22T05:41:19;4.27;;;3.57;;
53931;SDS011;39844;52.496;13.482;2023-04-22T05:43:45;4.90;;;4.00;;
53931;SDS011;39844;52.496;13.482;2023-04-22T05:46:10;8.20;;;4.07;;
53931;SDS011;39844;52.496;13.482;2023-04-22T05:48:35;8.80;;;4.40;;
53931;SDS011;39844;52.496;13.482;2023-04-22T05:51:00;5.50;;;4.17;;
53931;SDS011;39844;52.496;13.482;2023-04-22T05:53:26;7.93;;;4.60;;
53931;SDS011;39844;52.496;13.482;2023-04-22T05:55:52;6.73;;;4.27;;
53931;SDS011;39844;52.496;13.482;2023-04-22T05:58:17;6.50;;;4.27;;
53931;SDS011;39844;52.496;13.482;2023-04-22T06:00:42;5.77;;;4.37;;
53931;SDS011;39844;52.496;13.482;2023-04-22T06:03:08;4.60;;;4.13;;
53931;SDS011;39844;52.496;13.482;2023-04-22T06:05:33;4.50;;;3.77;;
53931;SDS011;39844;52.496;13.482;2023-04-22T06:07:58;5.33;;;3.90;;
53931;SDS011;39844;52.496;13.482;2023-04-22T06:10:24;7.37;;;4.13;;
53931;SDS011;39844;52.496;13.482;2023-04-22T06:12:49;6.63;;;3.90;;
53931;SDS011;39844;52.496;13.482;2023-04-22T06:15:14;8.57;;;3.93;;
53931;SDS011;39844;52.496;13.482;2023-04-22T06:17:40;5.17;;;4.10;;
53931;SDS011;39844;52.496;13.482;2023-04-22T06:20:05;4.40;;;3.87;;
53931;SDS011;39844;52.496;13.482;2023-04-22T06:22:31;4.53;;;4.07;;
53931;SDS011;39844;52.496;13.482;2023-04-22T06:24:56;6.20;;;4.27;;
53931;SDS011;39844;52.496;13.482;2023-04-22T06:27:22;4.73;;;3.90;;
53931;SDS011;39844;52.496;13.482;2023-04-22T06:29:47;6.67;;;3.57;;
53931;SDS011;39844;52.496;13.482;2023-04-22T06:32:12;5.53;;;3.47;;
53931;SDS011;39844;52.496;13.482;2023-04-22T06:34:37;6.17;;;4.23;;
53931;SDS011;39844;52.496;13.482;2023-04-22T06:37:03;6.53;;;4.27;;
53931;SDS011;39844;52.496;13.482;2023-04-22T06:39:28;5.90;;;3.90;;
53931;SDS011;39844;52.496;13.482;2023-04-22T06:41:54;6.93;;;4.23;;
53931;SDS011;39844;52.496;13.482;2023-04-22T06:44:19;7.60;;;3.93;;
53931;SDS011;39844;52.496;13.482;2023-04-22T06:46:45;5.40;;;4.13;;
53931;SDS011;39844;52.496;13.482;2023-04-22T06:49:11;6.70;;;4.10;;
53931;SDS011;39844;52.496;13.482;2023-04-22T06:51:36;7.00;;;4.27;;
53931;SDS011;39844;52.496;13.482;2023-04-22T06:54:01;6.37;;;4.17;;
53931;SDS011;39844;52.496;13.482;2023-04-22T06:56:27;5.13;;;4.10;;
53931;SDS011;39844;52.496;13.482;2023-04-22T06:58:53;4.60;;;3.33;;
53931;SDS011;39844;52.496;13.482;2023-04-22T07:01:19;5.43;;;3.63;;
53931;SDS011;39844;52.496;13.482;2023-04-22T07:03:44;3.70;;;3.37;;
53931;SDS011;39844;52.496;13.482;2023-04-22T07:06:10;7.63;;;4.43;;
53931;SDS011;39844;52.496;13.482;2023-04-22T07:08:35;5.90;;;4.40;;
53931;SDS011;39844;52.496;13.482;2023-04-22T07:11:00;6.43;;;3.90;;
53931;SDS011;39844;52.496;13.482;2023-04-22T07:13:25;6.90;;;4.30;;
53931;SDS011;39844;52.496;13.482;2023-04-22T07:15:51;7.23;;;4.07;;
53931;SDS011;39844;52.496;13.482;2023-04-22T07:18:17;5.80;;;4.10;;
53931;SDS011;39844;52.496;13.482;2023-04-22T07:20:42;7.80;;;4.23;;
53931;SDS011;39844;52.496;13.482;2023-04-22T07:23:07;7.40;;;3.97;;
53931;SDS011;39844;52.496;13.482;2023-04-22T07:25:32;7.40;;;4.07;;
53931;SDS011;39844;52.496;13.482;2023-04-22T07:27:58;5.20;;;3.83;;
53931;SDS011;39844;52.496;13.482;2023-04-22T07:30:23;6.07;;;4.07;;
53931;SDS011;39844;52.496;13.482;2023-04-22T07:32:48;5.80;;;4.03;;
53931;SDS011;39844;52.496;13.482;2023-04-22T07:35:14;6.93;;;4.63;;
53931;SDS011;39844;52.496;13.482;2023-04-22T07:37:39;7.77;;;4.47;;
53931;SDS011;39844;52.496;13.482;2023-04-22T07:40:04;5.57;;;3.57;;
53931;SDS011;39844;52.496;13.482;2023-04-22T07:42:30;5.03;;;3.67;;
53931;SDS011;39844;52.496;13.482;2023-04-22T07:44:56;5.30;;;3.67;;
53931;SDS011;39844;52.496;13.482;2023-04-22T07:47:21;7.27;;;4.30;;
53931;SDS011;39844;52.496;13.482;2023-04-22T07:49:46;5.80;;;4.13;;
53931;SDS011;39844;52.496;13.482;2023-04-22T07:52:11;5.63;;;3.90;;
53931;SDS011;39844;52.496;13.482;2023-04-22T07:54:37;4.20;;;3.40;;
53931;SDS011;39844;52.496;13.482;2023-04-22T07:57:02;4.47;;;3.70;;
53931;SDS011;39844;52.496;13.482;2023-04-22T07:59:27;4.97;;;3.77;;
53931;SDS011;39844;52.496;13.482;2023-04-22T08:01:53;4.90;;;4.17;;
53931;SDS011;39844;52.496;13.482;2023-04-22T08:04:20;5.00;;;3.50;;
53931;SDS011;39844;52.496;13.482;2023-04-22T08:06:46;6.23;;;3.73;;
53931;SDS011;39844;52.496;13.482;2023-04-22T08:09:12;10.07;;;3.87;;
53931;SDS011;39844;52.496;13.482;2023-04-22T08:11:37;5.43;;;3.70;;
53931;SDS011;39844;52.496;13.482;2023-04-22T08:14:02;5.83;;;4.07;;
53931;SDS011;39844;52.496;13.482;2023-04-22T08:16:28;13.33;;;4.10;;
53931;SDS011;39844;52.496;13.482;2023-04-22T08:18:53;5.57;;;4.50;;
53931;SDS011;39844;52.496;13.482;2023-04-22T08:21:18;4.80;;;3.77;;
53931;SDS011;39844;52.496;13.482;2023-04-22T08:23:43;5.03;;;3.70;;
53931;SDS011;39844;52.496;13.482;2023-04-22T08:26:09;5.83;;;4.07;;
53931;SDS011;39844;52.496;13.482;2023-04-22T08:28:34;4.23;;;3.80;;
53931;SDS011;39844;52.496;13.482;2023-04-22T08:31:00;5.53;;;3.70;;
53931;SDS011;39844;52.496;13.482;2023-04-22T08:33:25;4.13;;;3.73;;
53931;SDS011;39844;52.496;13.482;2023-04-22T08:35:51;6.37;;;3.80;;
53931;SDS011;39844;52.496;13.482;2023-04-22T08:38:16;4.33;;;3.93;;
53931;SDS011;39844;52.496;13.482;2023-04-22T08:40:42;5.70;;;4.13;;
53931;SDS011;39844;52.496;13.482;2023-04-22T08:43:08;4.27;;;3.87;;
53931;SDS011;39844;52.496;13.482;2023-04-22T08:45:33;3.80;;;3.50;;
53931;SDS011;39844;52.496;13.482;2023-04-22T08:47:59;3.73;;;3.37;;
53931;SDS011;39844;52.496;13.482;2023-04-22T08:50:26;5.10;;;3.43;;
53931;SDS011;39844;52.496;13.482;2023-04-22T08:52:52;6.53;;;4.10;;
53931;SDS011;39844;52.496;13.482;2023-04-22T08:55:18;4.47;;;3.90;;
53931;SDS011;39844;52.496;13.482;2023-04-22T08:57:43;5.67;;;3.87;;
53931;SDS011;39844;52.496;13.482;2023-04-22T09:00:09;3.57;;;3.27;;
53931;SDS011;39844;52.496;13.482;2023-04-22T09:02:35;6.33;;;3.87;;
53931;SDS011;39844;52.496;13.482;2023-04-22T09:05:02;5.53;;;3.60;;
53931;SDS011;39844;52.496;13.482;2023-04-22T09:07:30;4.30;;;3.90;;
53931;SDS011;39844;52.496;13.482;2023-04-22T09:09:56;4.40;;;3.90;;
53931;SDS011;39844;52.496;13.482;2023-04-22T09:12:22;8.67;;;4.27;;
53931;SDS011;39844;52.496;13.482;2023-04-22T09:14:49;3.83;;;3.50;;
53931;SDS011;39844;52.496;13.482;2023-04-22T09:17:15;4.80;;;3.63;;
53931;SDS011;39844;52.496;13.482;2023-04-22T09:19:41;4.13;;;3.47;;
53931;SDS011;39844;52.496;13.482;2023-04-22T09:22:12;4.60;;;3.90;;
53931;SDS011;39844;52.496;13.482;2023-04-22T09:24:40;4.87;;;3.57;;
53931;SDS011;39844;52.496;13.482;2023-04-22T09:27:07;4.93;;;3.67;;
53931;SDS011;39844;52.496;13.482;2023-04-22T09:29:32;4.83;;;3.57;;
53931;SDS011;39844;52.496;13.482;2023-04-22T09:31:57;5.37;;;3.60;;
53931;SDS011;39844;52.496;13.482;2023-04-22T09:34:23;4.90;;;3.63;;
53931;SDS011;39844;52.496;13.482;2023-04-22T09:36:51;3.67;;;3.30;;
53931;SDS011;39844;52.496;13.482;2023-04-22T09:39:16;4.50;;;3.80;;
53931;SDS011;39844;52.496;13.482;2023-04-22T09:41:41;3.43;;;3.13;;
53931;SDS011;39844;52.496;13.482;2023-04-22T09:44:13;4.40;;;2.83;;
53931;SDS011;39844;52.496;13.482;2023-04-22T09:46:41;4.10;;;3.30;;
53931;SDS011;39844;52.496;13.482;2023-04-22T09:49:08;3.57;;;3.27;;
53931;SDS011;39844;52.496;13.482;2023-04-22T09:51:34;3.90;;;3.57;;
53931;SDS011;39844;52.496;13.482;2023-04-22T09:54:00;7.23;;;3.00;;
53931;SDS011;39844;52.496;13.482;2023-04-22T09:57:11;6.73;;;3.17;;
53931;SDS011;39844;52.496;13.482;2023-04-22T09:59:24;3.57;;;3.23;;
53931;SDS011;39844;52.496;13.482;2023-04-22T10:01:51;3.13;;;2.90;;
53931;SDS011;39844;52.496;13.482;2023-04-22T10:04:17;4.27;;;3.13;;
53931;SDS011;39844;52.496;13.482;2023-04-22T10:06:43;3.57;;;3.13;;
53931;SDS011;39844;52.496;13.482;2023-04-22T10:09:08;5.03;;;3.10;;
53931;SDS011;39844;52.496;13.482;2023-04-22T10:11:34;3.87;;;3.50;;
53931;SDS011;39844;52.496;13.482;2023-04-22T10:13:59;4.03;;;3.17;;
53931;SDS011;39844;52.496;13.482;2023-04-22T10:16:25;3.70;;;3.07;;
53931;SDS011;39844;52.496;13.482;2023-04-22T10:18:53;4.47;;;3.30;;
53931;SDS011;39844;52.496;13.482;2023-04-22T10:21:20;4.20;;;3.33;;
53931;SDS011;39844;52.496;13.482;2023-04-22T10:23:47;3.73;;;2.93;;
53931;SDS011;39844;52.496;13.482;2023-04-22T10:26:21;4.43;;;3.40;;
53931;SDS011;39844;52.496;13.482;2023-04-22T10:29:13;3.73;;;3.33;;
53931;SDS011;39844;52.496;13.482;2023-04-22T10:31:40;6.30;;;3.50;;
53931;SDS011;39844;52.496;13.482;2023-04-22T10:34:12;4.07;;;3.07;;
53931;SDS011;39844;52.496;13.482;2023-04-22T10:37:00;7.37;;;3.77;;
53931;SDS011;39844;52.496;13.482;2023-04-22T10:39:26;6.00;;;3.00;;
53931;SDS011;39844;52.496;13.482;2023-04-22T10:41:53;5.07;;;3.37;;
53931;SDS011;39844;52.496;13.482;2023-04-22T10:44:21;6.23;;;3.40;;
53931;SDS011;39844;52.496;13.482;2023-04-22T10:49:17;6.15;;;3.35;;
53931;SDS011;39844;52.496;13.482;2023-04-22T10:59:30;4.53;;;3.55;;
53931;SDS011;39844;52.496;13.482;2023-04-22T11:02:06;3.30;;;3.00;;
53931;SDS011;39844;52.496;13.482;2023-04-22T11:04:32;4.45;;;3.60;;
53931;SDS011;39844;52.496;13.482;2023-04-22T11:07:14;3.38;;;3.15;;
53931;SDS011;39844;52.496;13.482;2023-04-22T11:09:43;5.47;;;3.20;;
53931;SDS011;39844;52.496;13.482;2023-04-22T11:15:06;3.58;;;3.28;;
53931;SDS011;39844;52.496;13.482;2023-04-22T11:17:35;4.28;;;3.45;;
53931;SDS011;39844;52.496;13.482;2023-04-22T11:20:01;4.75;;;3.10;;
53931;SDS011;39844;52.496;13.482;2023-04-22T11:22:28;4.22;;;3.20;;
53931;SDS011;39844;52.496;13.482;2023-04-22T11:24:59;4.88;;;3.42;;
53931;SDS011;39844;52.496;13.482;2023-04-22T11:27:25;3.72;;;3.42;;
53931;SDS011;39844;52.496;13.482;2023-04-22T11:30:07;3.55;;;3.20;;
53931;SDS011;39844;52.496;13.482;2023-04-22T11:32:35;3.60;;;2.97;;
53931;SDS011;39844;52.496;13.482;2023-04-22T11:35:02;6.75;;;3.28;;
53931;SDS011;39844;52.496;13.482;2023-04-22T11:37:28;3.42;;;3.13;;
53931;SDS011;39844;52.496;13.482;2023-04-22T11:40:03;4.22;;;2.90;;
53931;SDS011;39844;52.496;13.482;2023-04-22T11:42:29;3.03;;;2.83;;
53931;SDS011;39844;52.496;13.482;2023-04-22T11:44:54;4.75;;;3.22;;
53931;SDS011;39844;52.496;13.482;2023-04-22T11:47:19;3.03;;;2.80;;
53931;SDS011;39844;52.496;13.482;2023-04-22T11:49:55;4.53;;;3.45;;
53931;SDS011;39844;52.496;13.482;2023-04-22T11:52:20;6.30;;;3.30;;
53931;SDS011;39844;52.496;13.482;2023-04-22T11:54:46;4.70;;;3.35;;
53931;SDS011;39844;52.496;13.482;2023-04-22T11:57:11;3.72;;;3.42;;
53931;SDS011;39844;52.496;13.482;2023-04-22T11:59:36;3.20;;;3.00;;
53931;SDS011;39844;52.496;13.482;2023-04-22T12:02:05;4.28;;;3.30;;
53931;SDS011;39844;52.496;13.482;2023-04-22T12:04:37;4.70;;;3.70;;
53931;SDS011;39844;52.496;13.482;2023-04-22T12:07:03;4.35;;;3.22;;
53931;SDS011;39844;52.496;13.482;2023-04-22T12:09:28;3.97;;;3.53;;
53931;SDS011;39844;52.496;13.482;2023-04-22T12:11:54;6.22;;;3.55;;
53931;SDS011;39844;52.496;13.482;2023-04-22T12:14:20;3.10;;;2.90;;
53931;SDS011;39844;52.496;13.482;2023-04-22T12:16:45;3.97;;;3.10;;
53931;SDS011;39844;52.496;13.482;2023-04-22T12:19:10;3.40;;;3.15;;
53931;SDS011;39844;52.496;13.482;2023-04-22T12:21:36;3.10;;;2.90;;
53931;SDS011;39844;52.496;13.482;2023-04-22T12:24:02;3.17;;;2.90;;
53931;SDS011;39844;52.496;13.482;2023-04-22T12:26:32;4.53;;;2.80;;
53931;SDS011;39844;52.496;13.482;2023-04-22T12:28:58;3.83;;;3.45;;
53931;SDS011;39844;52.496;13.482;2023-04-22T12:31:24;3.70;;;2.80;;
53931;SDS011;39844;52.496;13.482;2023-04-22T12:33:51;3.67;;;3.38;;
53931;SDS011;39844;52.496;13.482;2023-04-22T12:36:17;5.03;;;3.28;;
53931;SDS011;39844;52.496;13.482;2023-04-22T12:38:43;3.53;;;3.15;;
53931;SDS011;39844;52.496;13.482;2023-04-22T12:41:08;6.55;;;3.28;;
53931;SDS011;39844;52.496;13.482;2023-04-22T12:43:34;4.47;;;3.28;;
53931;SDS011;39844;52.496;13.482;2023-04-22T12:45:59;6.30;;;3.40;;
53931;SDS011;39844;52.496;13.482;2023-04-22T12:48:24;6.45;;;2.85;;
53931;SDS011;39844;52.496;13.482;2023-04-22T12:50:50;3.97;;;3.10;;
53931;SDS011;39844;52.496;13.482;2023-04-22T12:53:15;3.90;;;3.25;;
53931;SDS011;39844;52.496;13.482;2023-04-22T12:55:40;4.13;;;3.33;;
53931;SDS011;39844;52.496;13.482;2023-04-22T12:58:06;6.25;;;3.55;;
53931;SDS011;39844;52.496;13.482;2023-04-22T13:00:31;5.80;;;3.08;;
53931;SDS011;39844;52.496;13.482;2023-04-22T13:02:57;3.75;;;2.88;;
53931;SDS011;39844;52.496;13.482;2023-04-22T13:05:22;3.97;;;3.50;;
53931;SDS011;39844;52.496;13.482;2023-04-22T13:07:47;3.90;;;2.88;;
53931;SDS011;39844;52.496;13.482;2023-04-22T13:10:14;4.30;;;2.90;;
53931;SDS011;39844;52.496;13.482;2023-04-22T13:12:41;5.15;;;3.20;;
53931;SDS011;39844;52.496;13.482;2023-04-22T13:15:07;5.68;;;3.55;;
53931;SDS011;39844;52.496;13.482;2023-04-22T13:17:33;4.35;;;2.67;;
53931;SDS011;39844;52.496;13.482;2023-04-22T13:19:59;5.35;;;3.10;;
53931;SDS011;39844;52.496;13.482;2023-04-22T13:22:25;3.17;;;2.88;;
53931;SDS011;39844;52.496;13.482;2023-04-22T13:24:51;4.38;;;3.42;;
53931;SDS011;39844;52.496;13.482;2023-04-22T13:27:16;3.80;;;3.50;;
53931;SDS011;39844;52.496;13.482;2023-04-22T13:29:41;4.40;;;3.20;;
53931;SDS011;39844;52.496;13.482;2023-04-22T13:32:07;4.43;;;3.38;;
53931;SDS011;39844;52.496;13.482;2023-04-22T13:34:33;3.75;;;3.40;;
53931;SDS011;39844;52.496;13.482;2023-04-22T13:36:58;3.13;;;2.92;;
53931;SDS011;39844;52.496;13.482;2023-04-22T13:39:24;5.35;;;3.25;;
53931;SDS011;39844;52.496;13.482;2023-04-22T13:41:49;5.07;;;3.60;;
53931;SDS011;39844;52.496;13.482;2023-04-22T13:44:15;3.38;;;3.08;;
53931;SDS011;39844;52.496;13.482;2023-04-22T13:46:41;4.10;;;3.00;;
53931;SDS011;39844;52.496;13.482;2023-04-22T13:49:06;3.13;;;2.92;;
53931;SDS011;39844;52.496;13.482;2023-04-22T13:51:32;5.57;;;3.55;;
53931;SDS011;39844;52.496;13.482;2023-04-22T13:53:58;3.55;;;3.25;;
53931;SDS011;39844;52.496;13.482;2023-04-22T13:56:24;11.00;;;3.25;;
53931;SDS011;39844;52.496;13.482;2023-04-22T13:58:50;3.40;;;3.10;;
53931;SDS011;39844;52.496;13.482;2023-04-22T14:01:15;3.67;;;3.13;;
53931;SDS011;39844;52.496;13.482;2023-04-22T14:03:41;5.15;;;3.40;;
53931;SDS011;39844;52.496;13.482;2023-04-22T14:06:07;3.13;;;2.78;;
53931;SDS011;39844;52.496;13.482;2023-04-22T14:08:33;3.55;;;3.25;;
53931;SDS011;39844;52.496;13.482;2023-04-22T14:10:58;4.68;;;3.10;;
53931;SDS011;39844;52.496;13.482;2023-04-22T14:13:24;3.45;;;3.08;;
53931;SDS011;39844;52.496;13.482;2023-04-22T14:15:52;3.90;;;3.42;;
53931;SDS011;39844;52.496;13.482;2023-04-22T14:18:18;3.13;;;2.92;;
53931;SDS011;39844;52.496;13.482;2023-04-22T14:20:43;3.97;;;3.17;;
53931;SDS011;39844;52.496;13.482;2023-04-22T14:23:09;3.45;;;3.13;;
53931;SDS011;39844;52.496;13.482;2023-04-22T14:25:35;3.17;;;2.90;;
53931;SDS011;39844;52.496;13.482;2023-04-22T14:28:01;5.97;;;3.13;;
53931;SDS011;39844;52.496;13.482;2023-04-22T14:30:27;4.90;;;2.78;;
53931;SDS011;39844;52.496;13.482;2023-04-22T14:32:52;3.60;;;3.08;;
53931;SDS011;39844;52.496;13.482;2023-04-22T14:35:17;4.60;;;2.65;;
53931;SDS011;39844;52.496;13.482;2023-04-22T14:37:43;3.85;;;3.28;;
53931;SDS011;39844;52.496;13.482;2023-04-22T14:40:08;5.68;;;3.00;;